Huvudsida
METAR-TAF:

METAR-TAF

Flygplatser :

Kunming Changshui International Airport

Kunming, Kina

latitud: 25-01N, longitud: 102-41E, höjd: 1892 m

Aktuellt väderrapport

Denna rapport gjordes för 43 minuter sedan, klockan 23:00 UTC
Vind 4 kt från nordost
Temperatur 13°C
Fuktighet 100%
Tryck 1016 hPa
Sikt: 1600 m
dimbankar, fuktdis

METAR: ZPPP 222300Z 04002MPS 1600 BCFG BR NSC 13/13 Q1016 NOSIG

Tid: 07:43 (23:43 UTC)

Väderprognos

Denna rapport gjordes för 4 timmar och 32 minuter sedan, klockan 19:11 UTC
Prognos gäller från 23 kl. 00 UTC till 23 kl. 24 UTC
Vind 8 kt från ost/nordost
Sikt 10 km eller mer
Spridda moln på en höjd av 2600 ft
Brutna moln på en höjd av 4000 ft

TAF: ZPPP 221911Z 2300/2324 06004MPS 9999 SCT026 BKN040 TX26/2308Z TN15/2323Z

Aktuella väderrapporter och prognoser från 4000 flygplatser (METAR- och TAF-rapporter).

De tillgängliga stationerna syns som gula och röda prickar på kartan.

För musen över prickarna för att se namnen på stationerna.

Klicka sedan för att få väderrapporter och prognoser.

För att ändra kartan: Klicka på de gröna knapparna med ett svart kors på för att zooma in; den gröna knappen med ett streck på för att zooma ut; eller på de gröna pilarna för angränsande kartor.


METAR-TAF: